Time;durP1;ratioP1;P1;durP2;ratioP2;P2;SDS_P1;SDS_P2;PMS_P1;PMS_P2;Temp;Humidity;BMP_temperature;BMP_pressure;BME280_temperature;BME280_humidity;BME280_pressure;Samples;Min_cycle;Max_cycle;Signal;HPM_P1;HPM_P2
2022/10/20 00:01:59;;;;;;;23.00;11.15;;;;;;;16.70;82.34;101383.28;4992651;28;20413;-85
2022/10/20 00:04:28;;;;;;;27.75;12.00;;;;;;;16.71;81.60;101378.56;4978366;28;20039;-85
2022/10/20 00:06:56;;;;;;;24.00;10.57;;;;;;;16.70;81.63;101374.16;4991994;28;20050;-85
2022/10/20 00:09:24;;;;;;;21.08;10.13;;;;;;;16.67;81.75;101381.09;4992578;28;20050;-85
2022/10/20 00:11:52;;;;;;;20.67;9.57;;;;;;;16.70;81.45;101379.69;4992427;28;20602;-85
2022/10/20 00:14:19;;;;;;;22.80;9.95;;;;;;;16.73;81.15;101376.31;4991466;28;20065;-85
2022/10/20 00:16:47;;;;;;;21.92;10.30;;;;;;;16.72;82.05;101389.31;4991726;28;20054;-85
2022/10/20 00:19:15;;;;;;;21.08;10.40;;;;;;;16.72;80.85;101385.75;4989315;28;20789;-85
2022/10/20 00:21:43;;;;;;;24.92;10.18;;;;;;;16.64;81.10;101390.00;4992294;28;20085;-85
2022/10/20 00:24:11;;;;;;;25.40;9.98;;;;;;;16.63;81.34;101385.59;4991270;28;20046;-85
2022/10/20 00:26:39;;;;;;;25.13;10.63;;;;;;;16.60;81.67;101384.25;4991420;28;20042;-84
2022/10/20 00:29:07;;;;;;;19.80;9.68;;;;;;;16.58;81.66;101392.03;4991778;28;20054;-85
2022/10/20 00:31:35;;;;;;;23.10;11.18;;;;;;;16.60;81.50;101389.78;4986294;28;20059;-85
2022/10/20 00:34:02;;;;;;;18.55;9.70;;;;;;;16.58;82.13;101392.03;4991246;28;20050;-85
2022/10/20 00:36:30;;;;;;;26.00;11.35;;;;;;;16.58;81.99;101394.81;4990808;28;20042;-85
2022/10/20 00:38:59;;;;;;;18.90;9.40;;;;;;;16.55;82.02;101394.56;4992291;28;20042;-85
2022/10/20 00:41:28;;;;;;;20.85;10.82;;;;;;;16.59;82.26;101388.16;4991598;28;20049;-85
2022/10/20 00:43:59;;;;;;;21.05;9.70;;;;;;;16.54;82.17;101379.94;4991838;28;20496;-86
2022/10/20 00:46:37;;;;;;;21.42;9.65;;;;;;;16.50;82.20;101373.38;4991226;28;20043;-86
2022/10/20 00:49:22;;;;;;;26.38;9.57;;;;;;;16.53;82.15;101372.78;4988068;28;20412;-86
2022/10/20 00:51:51;;;;;;;20.50;9.73;;;;;;;16.52;82.00;101382.16;4991794;28;20054;-85
2022/10/20 00:54:26;;;;;;;21.02;9.70;;;;;;;16.51;81.80;101380.53;4991770;28;20046;-86
2022/10/20 00:56:55;;;;;;;20.95;9.65;;;;;;;16.47;82.08;101379.50;4991312;28;20050;-86
2022/10/20 00:59:28;;;;;;;20.35;9.38;;;;;;;16.48;81.68;101375.63;4991558;28;20042;-86
2022/10/20 01:01:58;;;;;;;18.35;8.27;;;;;;;16.43;81.68;101373.75;4991476;28;20061;-85
2022/10/20 01:04:29;;;;;;;18.35;8.38;;;;;;;16.44;81.31;101369.06;4991179;28;20059;-85
2022/10/20 01:06:57;;;;;;;20.42;9.15;;;;;;;16.39;81.59;101365.25;4991127;28;20065;-85
2022/10/20 01:09:26;;;;;;;20.92;8.32;;;;;;;16.38;81.75;101371.88;4991753;28;20058;-85
2022/10/20 01:12:14;;;;;;;16.88;8.38;;;;;;;16.37;81.39;101372.19;4991946;28;20054;-85
2022/10/20 01:14:49;;;;;;;16.45;8.63;;;;;;;16.26;82.22;101357.72;4987486;28;20050;-85
2022/10/20 01:17:38;;;;;;;17.35;8.30;;;;;;;16.26;82.25;101354.97;4990829;28;20050;-85
2022/10/20 01:20:27;;;;;;;17.90;8.15;;;;;;;16.28;82.64;101354.66;4990954;28;20054;-85
2022/10/20 01:23:22;;;;;;;16.05;8.40;;;;;;;16.22;82.55;101357.50;4990482;28;20050;-85
2022/10/20 01:26:19;;;;;;;20.30;8.73;;;;;;;16.26;82.16;101354.97;4987675;28;20057;-86
2022/10/20 01:28:56;;;;;;;18.77;7.13;;;;;;;16.33;81.24;101373.91;4976433;28;20045;-85
2022/10/20 01:31:52;;;;;;;23.30;8.15;;;;;;;16.29;81.56;101368.19;4991725;28;20045;-85
2022/10/20 01:34:32;;;;;;;12.90;7.50;;;;;;;16.36;80.99;101370.53;4987999;28;20042;-85
2022/10/20 01:37:07;;;;;;;14.82;7.65;;;;;;;16.31;81.47;101365.09;4987806;28;20482;-83
2022/10/20 01:39:52;;;;;;;16.33;7.18;;;;;;;16.20;82.39;101372.72;4989523;28;20500;-85
2022/10/20 01:42:23;;;;;;;22.98;7.75;;;;;;;16.22;82.50;101362.19;4988967;28;20058;-84
2022/10/20 01:44:55;;;;;;;17.00;8.60;;;;;;;16.22;82.38;101362.19;4991500;28;20051;-85
2022/10/20 01:47:25;;;;;;;20.27;8.05;;;;;;;16.19;81.96;101362.81;4990775;28;20490;-85
2022/10/20 01:49:55;;;;;;;16.80;7.32;;;;;;;16.17;82.19;101365.06;4991895;28;20510;-85
2022/10/20 01:52:26;;;;;;;13.73;6.85;;;;;;;16.17;81.98;101354.00;4993854;28;20042;-85
2022/10/20 01:54:54;;;;;;;17.60;8.13;;;;;;;16.18;82.11;101353.69;4994542;28;20057;-85
2022/10/20 01:57:44;;;;;;;18.15;8.75;;;;;;;16.19;81.88;101347.03;4993941;28;20046;-85
2022/10/20 02:00:14;;;;;;;15.30;7.32;;;;;;;16.14;81.93;101343.53;4994910;28;20047;-84
2022/10/20 02:03:03;;;;;;;14.93;7.20;;;;;;;16.14;82.26;101349.91;4992237;28;20522;-85
2022/10/20 02:06:08;;;;;;;19.52;8.30;;;;;;;16.12;82.15;101350.19;4993150;28;20058;-85
2022/10/20 02:09:00;;;;;;;18.20;8.82;;;;;;;16.11;82.36;101362.38;4992819;28;20448;-85
2022/10/20 02:11:42;;;;;;;15.68;8.15;;;;;;;16.12;82.31;101352.13;4994981;28;20050;-85
2022/10/20 02:14:13;;;;;;;18.33;7.32;;;;;;;16.15;81.86;101361.75;4986502;28;20046;-85
2022/10/20 02:16:59;;;;;;;18.13;8.20;;;;;;;16.06;82.35;101351.38;4992835;28;20046;-86
2022/10/20 02:19:32;;;;;;;16.17;7.13;;;;;;;16.05;82.32;101358.03;4988763;28;20527;-85
2022/10/20 02:22:01;;;;;;;16.50;8.15;;;;;;;16.09;82.35;101353.53;4994081;28;20046;-83
2022/10/20 02:24:35;;;;;;;14.23;6.97;;;;;;;16.11;81.59;101356.00;4993675;28;20049;-85
2022/10/20 02:27:40;;;;;;;16.88;7.55;;;;;;;16.05;82.41;101358.03;4987730;28;20046;-85
2022/10/20 02:30:11;;;;;;;17.52;7.82;;;;;;;15.95;83.06;101359.00;4972107;28;20093;-85
2022/10/20 02:32:41;;;;;;;19.27;7.85;;;;;;;15.89;82.75;101362.91;4985502;28;20053;-84
2022/10/20 02:35:13;;;;;;;17.50;8.23;;;;;;;15.82;82.29;101357.75;4993524;28;20077;-85
2022/10/20 02:37:41;;;;;;;16.27;7.82;;;;;;;15.77;82.52;101355.06;4992791;28;20050;-85
2022/10/20 02:40:09;;;;;;;16.27;7.35;;;;;;;15.77;82.95;101352.31;4993674;28;20042;-85
2022/10/20 02:42:39;;;;;;;17.20;8.23;;;;;;;15.77;83.56;101345.94;4991481;28;20146;-85
2022/10/20 02:45:07;;;;;;;18.70;8.65;;;;;;;15.76;83.09;101356.19;4993267;28;20057;-85
2022/10/20 02:47:35;;;;;;;12.65;6.85;;;;;;;15.74;82.74;101346.56;4992796;28;20059;-86
2022/10/20 02:50:05;;;;;;;16.00;7.28;;;;;;;15.77;83.05;101351.47;4993005;28;20058;-85
2022/10/20 02:52:33;;;;;;;17.55;8.25;;;;;;;15.76;83.68;101355.34;4993839;28;20614;-85
2022/10/20 02:55:02;;;;;;;15.63;8.05;;;;;;;15.75;83.65;101345.44;4994148;28;20047;-84
2022/10/20 02:57:30;;;;;;;21.38;7.53;;;;;;;15.80;83.30;101357.22;4993048;28;20054;-84
2022/10/20 02:59:57;;;;;;;10.57;6.82;;;;;;;15.81;82.98;101353.38;4993752;28;20378;-85
2022/10/20 03:02:25;;;;;;;16.83;7.57;;;;;;;15.84;82.70;101363.00;4984369;28;20518;-85
2022/10/20 03:04:53;;;;;;;15.45;7.88;;;;;;;15.84;82.81;101358.28;4991896;28;20494;-85
2022/10/20 03:07:21;;;;;;;18.75;7.40;;;;;;;15.80;82.36;101371.03;4988534;28;20046;-85
2022/10/20 03:09:48;;;;;;;13.73;7.40;;;;;;;15.71;82.69;101375.56;4992076;28;20042;-85
2022/10/20 03:12:16;;;;;;;15.43;8.00;;;;;;;15.67;83.20;101382.78;4993179;28;20049;-85
2022/10/20 03:14:44;;;;;;;14.93;7.88;;;;;;;15.68;83.10;101378.91;4987018;28;20042;-84
2022/10/20 03:17:12;;;;;;;14.98;7.32;;;;;;;15.62;83.84;101382.84;4993122;28;20042;-85
2022/10/20 03:19:40;;;;;;;19.48;7.15;;;;;;;15.57;84.62;101376.28;4992758;28;20492;-85
2022/10/20 03:22:08;;;;;;;15.75;7.57;;;;;;;15.49;84.64;101374.16;4992845;28;20054;-84
2022/10/20 03:24:35;;;;;;;15.90;7.35;;;;;;;15.47;84.77;101376.41;4993199;28;20066;-84
2022/10/20 03:27:03;;;;;;;13.77;7.63;;;;;;;15.48;84.51;101378.03;4991380;28;20050;-85
2022/10/20 03:29:31;;;;;;;13.95;7.45;;;;;;;15.47;84.84;101387.44;4992705;28;20042;-85
2022/10/20 03:31:59;;;;;;;15.75;7.97;;;;;;;15.43;84.48;101373.41;4992355;28;20049;-85
2022/10/20 03:34:26;;;;;;;17.20;7.88;;;;;;;15.44;83.95;101371.47;4990907;28;20057;-85
2022/10/20 03:36:54;;;;;;;17.55;7.75;;;;;;;15.44;84.06;101371.47;4985296;28;20386;-85
2022/10/20 03:39:22;;;;;;;14.27;7.43;;;;;;;15.46;84.14;101372.00;4993006;28;20413;-85
2022/10/20 03:41:50;;;;;;;20.58;8.00;;;;;;;15.42;84.42;101379.22;4991004;28;20046;-84
2022/10/20 03:44:18;;;;;;;15.27;7.10;;;;;;;15.42;84.43;101385.56;4991088;28;20057;-85
2022/10/20 03:46:45;;;;;;;14.88;7.68;;;;;;;15.48;84.64;101383.56;4991507;28;20042;-85
2022/10/20 03:49:13;;;;;;;13.40;7.25;;;;;;;15.49;84.95;101378.88;4991850;28;20053;-84
2022/10/20 03:51:41;;;;;;;19.90;8.57;;;;;;;15.45;84.77;101384.97;4993383;28;20051;-84
2022/10/20 03:54:09;;;;;;;14.85;7.18;;;;;;;15.42;85.34;101390.25;4992217;28;20053;-85
2022/10/20 03:56:36;;;;;;;18.98;7.47;;;;;;;15.37;85.52;101390.31;4992167;28;20054;-84
2022/10/20 03:59:04;;;;;;;15.15;8.05;;;;;;;15.33;85.91;101395.59;4991454;28;20046;-85
2022/10/20 04:01:33;;;;;;;16.35;7.57;;;;;;;15.36;85.98;101396.94;4993060;28;20054;-84
2022/10/20 04:04:01;;;;;;;14.43;7.65;;;;;;;15.32;85.62;101392.00;4991272;28;20054;-84
2022/10/20 04:06:30;;;;;;;21.08;8.40;;;;;;;15.26;85.97;101395.91;4990643;28;20053;-85
2022/10/20 04:08:58;;;;;;;14.93;7.40;;;;;;;15.23;86.13;101391.00;4989550;28;20065;-84
2022/10/20 04:11:26;;;;;;;16.08;8.05;;;;;;;15.27;85.94;101394.00;4993262;28;20069;-84
2022/10/20 04:13:54;;;;;;;19.77;8.18;;;;;;;15.23;85.25;101398.44;4991772;28;20045;-85
2022/10/20 04:16:23;;;;;;;15.13;7.57;;;;;;;15.19;86.22;101398.22;4992380;28;20050;-85
2022/10/20 04:18:51;;;;;;;13.15;6.95;;;;;;;15.18;86.21;101394.66;4984042;28;20358;-85
2022/10/20 04:21:19;;;;;;;21.70;8.55;;;;;;;15.23;86.02;101404.78;4991038;28;20424;-83
2022/10/20 04:23:47;;;;;;;17.02;8.10;;;;;;;15.24;85.66;101398.16;4991373;28;20077;-85
2022/10/20 04:26:15;;;;;;;14.25;7.15;;;;;;;15.36;84.86;101394.19;4992465;28;20053;-85
2022/10/20 04:28:43;;;;;;;15.13;7.18;;;;;;;15.41;84.73;101397.69;4990613;28;20380;-84
2022/10/20 04:31:11;;;;;;;18.48;8.18;;;;;;;15.39;84.81;101401.88;4983261;28;20046;-85
2022/10/20 04:33:39;;;;;;;16.60;7.30;;;;;;;15.34;84.87;101399.19;4991135;28;20049;-85
2022/10/20 04:36:11;;;;;;;14.57;7.25;;;;;;;15.26;85.55;101398.69;4992392;28;20057;-85
2022/10/20 04:38:38;;;;;;;13.75;7.45;;;;;;;15.24;85.68;101394.59;4991355;28;20058;-85
2022/10/20 04:41:06;;;;;;;15.20;7.85;;;;;;;15.29;85.46;101400.88;4989429;28;20051;-85
2022/10/20 04:43:34;;;;;;;15.07;6.75;;;;;;;15.30;85.72;101401.69;4992171;28;20362;-85
2022/10/20 04:46:04;;;;;;;13.40;7.10;;;;;;;15.26;85.15;101412.47;4992293;28;20050;-84
2022/10/20 04:48:37;;;;;;;15.67;7.93;;;;;;;15.23;85.44;101404.78;4992032;28;20058;-84
2022/10/20 04:51:10;;;;;;;15.85;7.63;;;;;;;15.21;85.51;101407.03;4990133;28;20054;-84
2022/10/20 04:53:38;;;;;;;16.15;7.45;;;;;;;15.25;85.20;101407.25;4985435;28;20050;-84
2022/10/20 04:56:08;;;;;;;21.40;7.53;;;;;;;15.21;85.16;101403.44;4992007;28;20054;-85
2022/10/20 04:58:36;;;;;;;15.15;7.65;;;;;;;15.32;86.50;101403.03;4991302;28;20055;-82
2022/10/20 05:01:12;;;;;;;16.58;7.80;;;;;;;15.94;84.36;101411.75;4958370;28;20062;-82
2022/10/20 05:03:40;;;;;;;21.50;7.85;;;;;;;16.51;81.05;101413.69;4974577;28;20057;-80
2022/10/20 05:06:19;;;;;;;18.30;8.35;;;;;;;16.92;78.57;101410.25;4990599;28;20062;-81
2022/10/20 05:08:50;;;;;;;17.15;7.50;;;;;;;17.25;76.45;101405.84;4990975;28;20061;-81
2022/10/20 05:11:20;;;;;;;18.77;7.75;;;;;;;17.50;75.17;101409.25;4987215;28;20298;-82
2022/10/20 05:13:48;;;;;;;16.48;7.85;;;;;;;17.66;74.14;101421.66;4992351;28;20042;-82
2022/10/20 05:16:17;;;;;;;15.65;7.63;;;;;;;17.76;73.66;101417.03;4989250;28;20045;-81
2022/10/20 05:18:46;;;;;;;14.93;7.65;;;;;;;17.80;72.94;101415.28;4991030;28;20053;-82
2022/10/20 05:21:17;;;;;;;16.73;7.45;;;;;;;17.79;72.86;101416.44;4988228;28;20038;-81
2022/10/20 05:23:45;;;;;;;14.52;7.75;;;;;;;17.81;72.54;101420.53;4991911;28;20481;-82
2022/10/20 05:26:16;;;;;;;15.32;7.78;;;;;;;17.66;72.65;101407.81;4994822;28;20055;-81
2022/10/20 05:28:48;;;;;;;16.58;7.50;;;;;;;17.76;72.79;101417.88;4993979;28;20038;-81
2022/10/20 05:31:19;;;;;;;20.08;8.05;;;;;;;17.79;72.63;101405.34;4982521;28;20417;-81
2022/10/20 05:33:52;;;;;;;18.98;8.48;;;;;;;17.81;72.41;101414.16;4994623;28;20038;-82
2022/10/20 05:36:23;;;;;;;13.10;7.00;;;;;;;17.75;72.47;101407.91;4982149;28;20058;-81
2022/10/20 05:38:53;;;;;;;20.38;7.88;;;;;;;17.81;72.25;101417.75;4996312;28;20053;-81
2022/10/20 05:41:27;;;;;;;16.08;8.15;;;;;;;17.85;72.05;101412.41;4996165;28;20046;-82
2022/10/20 05:43:56;;;;;;;;;;;;;;;17.72;72.27;101417.66;4991257;28;20073;-87
2022/10/20 05:46:27;;;;;;;16.48;8.75;;;;;;;17.00;74.79;101419.81;4992569;28;19928;-80
2022/10/20 05:48:57;;;;;;;16.02;8.27;;;;;;;16.52;77.30;101420.84;4995792;28;20047;-79
2022/10/20 05:51:28;;;;;;;17.20;8.05;;;;;;;15.96;79.70;101426.06;4995960;28;20047;-80
2022/10/20 05:53:57;;;;;;;23.33;8.80;;;;;;;15.79;81.50;101424.56;4995269;28;20054;-80
2022/10/20 05:56:26;;;;;;;20.60;8.77;;;;;;;15.71;81.74;101428.84;4995413;28;20061;-80
2022/10/20 05:58:55;;;;;;;16.33;8.50;;;;;;;15.57;82.67;101425.94;4994778;28;20527;-79
2022/10/20 06:01:26;;;;;;;18.13;8.30;;;;;;;15.53;83.28;101430.41;4994895;28;20062;-79
2022/10/20 06:03:59;;;;;;;18.23;8.35;;;;;;;15.47;83.54;101431.56;4994976;28;20110;-79
2022/10/20 06:06:29;;;;;;;18.02;8.50;;;;;;;15.55;83.80;101428.16;4994987;28;20050;-78
2022/10/20 06:08:59;;;;;;;20.27;8.82;;;;;;;15.61;84.22;101430.88;4995224;28;20504;-79
2022/10/20 06:11:27;;;;;;;12.68;7.60;;;;;;;15.68;83.79;101436.84;4995109;28;20405;-78
2022/10/20 06:13:55;;;;;;;20.00;8.82;;;;;;;15.66;83.60;101437.16;4995122;28;20385;-79
2022/10/20 06:16:24;;;;;;;15.88;8.10;;;;;;;15.79;82.89;101443.88;4995023;28;20045;-79
2022/10/20 06:18:53;;;;;;;16.13;7.60;;;;;;;15.84;82.59;101449.34;4995101;28;20390;-78
2022/10/20 06:21:26;;;;;;;18.17;8.50;;;;;;;15.90;82.33;101458.41;4995031;28;20050;-79
2022/10/20 06:23:54;;;;;;;19.13;8.35;;;;;;;16.01;81.98;101459.13;4994763;28;20043;-79
2022/10/20 06:26:24;;;;;;;21.40;8.45;;;;;;;16.17;80.57;101458.94;4994902;28;20043;-79
2022/10/20 06:28:54;;;;;;;19.23;9.32;;;;;;;16.17;81.60;101454.22;4994135;28;20042;-79
2022/10/20 06:31:37;;;;;;;18.50;7.68;;;;;;;16.54;79.89;101443.50;4994650;28;20054;-79
2022/10/20 06:34:08;;;;;;;18.88;8.90;;;;;;;16.56;79.19;101448.72;4994525;28;20054;-79
2022/10/20 06:36:38;;;;;;;19.77;7.88;;;;;;;16.92;78.31;101454.50;4994527;28;20401;-78
2022/10/20 06:39:07;;;;;;;16.58;7.72;;;;;;;16.94;78.36;101454.19;4994987;28;20397;-78
2022/10/20 06:41:35;;;;;;;16.48;9.18;;;;;;;17.08;77.33;101443.22;4994320;28;20065;-78
2022/10/20 06:44:03;;;;;;;17.80;8.10;;;;;;;17.38;76.12;101451.25;4994626;28;20054;-78
2022/10/20 06:46:34;;;;;;;18.30;7.93;;;;;;;17.31;76.77;101462.72;4994258;28;20081;-78
2022/10/20 06:49:04;;;;;;;18.98;8.93;;;;;;;17.49;76.19;101457.44;4994293;28;20524;-78
2022/10/20 06:51:34;;;;;;;18.60;9.82;;;;;;;17.49;76.52;101462.97;4994276;28;20413;-78
2022/10/20 06:54:02;;;;;;;17.23;9.23;;;;;;;17.40;76.72;101471.94;4994064;28;20058;-79
2022/10/20 06:56:33;;;;;;;18.63;9.25;;;;;;;17.42;77.08;101466.94;4994162;28;20061;-79
2022/10/20 06:59:02;;;;;;;19.60;9.05;;;;;;;17.45;76.81;101471.84;4994009;28;20090;-79
2022/10/20 07:01:33;;;;;;;24.05;10.20;;;;;;;17.49;77.95;101485.91;4994342;28;20066;-79
2022/10/20 07:04:04;;;;;;;23.73;9.77;;;;;;;17.33;77.55;101483.44;4993937;28;20061;-79
2022/10/20 07:06:36;;;;;;;24.02;9.73;;;;;;;17.48;77.05;101487.03;4994085;28;20397;-78
2022/10/20 07:09:10;;;;;;;23.23;9.20;;;;;;;17.67;76.60;101481.44;4993707;28;20050;-78
2022/10/20 07:11:38;;;;;;;29.20;9.68;;;;;;;17.96;75.74;101480.31;4993901;28;20046;-79
2022/10/20 07:14:06;;;;;;;22.10;10.30;;;;;;;18.21;75.00;101475.38;4994114;28;20046;-79
2022/10/20 07:16:34;;;;;;;25.38;11.00;;;;;;;18.27;74.12;101478.84;4994057;28;20057;-79
2022/10/20 07:19:03;;;;;;;24.80;10.70;;;;;;;18.41;73.19;101481.59;4994374;28;20049;-79
2022/10/20 07:21:31;;;;;;;24.60;10.10;;;;;;;18.13;73.20;101484.41;4993683;28;20050;-78
2022/10/20 07:24:05;;;;;;;28.92;11.65;;;;;;;18.31;73.26;101490.13;4994042;28;20066;-79
2022/10/20 07:26:36;;;;;;;24.73;12.07;;;;;;;18.47;73.36;101469.25;4993722;28;20049;-79
2022/10/20 07:29:05;;;;;;;24.42;11.95;;;;;;;18.83;71.22;101475.09;4994085;28;20042;-79
2022/10/20 07:31:40;;;;;;;26.63;12.02;;;;;;;18.94;70.19;101479.25;4993899;28;20050;-79
2022/10/20 07:34:10;;;;;;;28.08;12.25;;;;;;;19.40;68.74;101477.28;4993330;28;20062;-79
2022/10/20 07:36:53;;;;;;;24.83;11.10;;;;;;;19.43;70.19;101475.81;4993336;28;20069;-79
2022/10/20 07:39:21;;;;;;;22.42;11.20;;;;;;;19.61;68.28;101476.72;4993724;28;20061;-79
2022/10/20 07:41:49;;;;;;;22.75;11.20;;;;;;;20.10;66.48;101481.50;4993095;28;20489;-79
2022/10/20 07:44:16;;;;;;;28.05;11.60;;;;;;;20.56;66.51;101484.00;4993440;28;20049;-79
2022/10/20 07:46:44;;;;;;;20.83;11.35;;;;;;;20.50;64.57;101488.91;4993410;28;20054;-79
2022/10/20 07:49:12;;;;;;;28.27;10.43;;;;;;;20.36;66.45;101489.06;4992927;28;20397;-78
2022/10/20 07:52:00;;;;;;;18.65;10.65;;;;;;;20.94;64.49;101481.41;4993395;28;20474;-79
2022/10/20 07:54:28;;;;;;;17.92;9.68;;;;;;;21.32;62.61;101485.41;4993402;28;20042;-79
2022/10/20 07:56:55;;;;;;;16.38;9.82;;;;;;;21.68;61.60;101485.28;4991684;28;20401;-79
2022/10/20 07:59:23;;;;;;;15.60;9.20;;;;;;;21.44;62.07;101487.50;4993072;28;20042;-79
2022/10/20 08:01:51;;;;;;;16.45;9.02;;;;;;;21.73;61.72;101487.91;4992924;28;20059;-79
2022/10/20 08:04:25;;;;;;;14.10;9.18;;;;;;;21.60;62.47;101489.72;4992819;28;20370;-79
2022/10/20 08:06:53;;;;;;;13.85;9.32;;;;;;;21.45;61.99;101488.31;4992896;28;20050;-79
2022/10/20 08:09:21;;;;;;;16.40;9.20;;;;;;;21.44;62.61;101501.44;4993260;28;20042;-79
2022/10/20 08:11:49;;;;;;;16.40;8.85;;;;;;;21.56;63.49;101500.72;4993066;28;20379;-80
2022/10/20 08:14:25;;;;;;;14.10;8.40;;;;;;;21.45;62.59;101503.06;4992784;28;20049;-79
2022/10/20 08:16:54;;;;;;;16.77;9.23;;;;;;;21.44;61.97;101504.22;4993015;28;20049;-79
2022/10/20 08:19:23;;;;;;;17.13;8.52;;;;;;;21.27;63.34;101513.44;4992782;28;20058;-79
2022/10/20 08:22:11;;;;;;;15.07;8.65;;;;;;;21.16;63.85;101503.81;4965001;28;20055;-79
2022/10/20 08:24:39;;;;;;;13.98;9.20;;;;;;;21.13;63.79;101504.44;4992472;28;20066;-79
2022/10/20 08:27:07;;;;;;;13.60;7.85;;;;;;;21.08;64.35;101497.09;4990722;28;20054;-78
2022/10/20 08:29:35;;;;;;;15.68;8.57;;;;;;;21.13;64.22;101490.53;4992719;28;20058;-79
2022/10/20 08:32:04;;;;;;;14.98;8.57;;;;;;;21.04;64.32;101491.38;4992200;28;20497;-79
2022/10/20 08:34:32;;;;;;;16.83;8.35;;;;;;;21.31;64.23;101486.56;4992655;28;20049;-79
2022/10/20 08:37:00;;;;;;;17.17;9.35;;;;;;;21.31;64.36;101505.25;4992599;28;20405;-80
2022/10/20 08:39:28;;;;;;;13.68;8.20;;;;;;;21.37;63.59;101494.75;4992203;28;20058;-80
2022/10/20 08:41:56;;;;;;;16.15;8.93;;;;;;;21.57;63.43;101501.56;4992056;28;20054;-79
2022/10/20 08:44:43;;;;;;;;;;;;;;;22.20;61.09;101503.75;4992703;28;20046;-79
2022/10/20 08:47:21;;;;;;;13.50;8.63;;;;;;;22.20;60.85;101498.16;4992025;28;19929;-79
2022/10/20 08:49:49;;;;;;;15.93;8.48;;;;;;;22.21;60.00;101499.81;4991925;28;20069;-79
2022/10/20 08:52:21;;;;;;;13.50;7.60;;;;;;;22.41;58.51;101505.72;4992392;28;20226;-79
2022/10/20 08:54:54;;;;;;;11.75;6.72;;;;;;;22.51;56.68;101513.69;4992381;28;20085;-77
2022/10/20 08:57:26;;;;;;;13.43;7.43;;;;;;;22.76;56.23;101516.66;4992341;28;20046;-78
2022/10/20 09:00:00;;;;;;;12.30;7.25;;;;;;;22.99;55.44;101507.91;4991973;28;20050;-79
2022/10/20 09:02:33;;;;;;;9.90;6.22;;;;;;;23.09;54.56;101513.09;4992273;28;20062;-79
2022/10/20 09:05:03;;;;;;;10.80;6.32;;;;;;;22.95;54.42;101509.75;4992361;28;20489;-78
2022/10/20 09:07:34;;;;;;;11.80;6.82;;;;;;;22.37;55.21;101515.91;4992127;28;20046;-80
2022/10/20 09:10:24;;;;;;;12.32;6.20;;;;;;;22.91;55.69;101522.75;4991883;28;20054;-80
2022/10/20 09:12:52;;;;;;;12.27;6.45;;;;;;;22.97;54.13;101524.16;4990524;28;20047;-80
2022/10/20 09:15:22;;;;;;;8.68;6.65;;;;;;;22.65;55.24;101535.78;4978429;28;20046;-80
2022/10/20 09:18:02;;;;;;;14.48;7.57;;;;;;;22.63;54.71;101523.31;4992024;28;20058;-79
2022/10/20 09:20:39;;;;;;;12.15;7.18;;;;;;;23.33;52.97;101521.91;4992007;28;20046;-79
2022/10/20 09:23:19;;;;;;;11.57;7.28;;;;;;;22.82;54.78;101531.19;4992143;28;20059;-80
2022/10/20 09:26:16;;;;;;;9.48;6.57;;;;;;;22.91;55.02;101522.75;4991857;28;20081;-79
2022/10/20 09:29:15;;;;;;;16.33;7.30;;;;;;;22.79;55.31;101515.94;4992251;28;20058;-79
2022/10/20 09:31:52;;;;;;;11.00;6.80;;;;;;;23.13;54.99;101515.16;4991717;28;20057;-79
2022/10/20 09:34:29;;;;;;;10.88;6.70;;;;;;;22.88;55.07;101518.66;4991985;28;20059;-80
2022/10/20 09:37:06;;;;;;;10.20;7.05;;;;;;;22.57;56.07;101505.97;4991273;28;20058;-80
2022/10/20 09:39:45;;;;;;;14.98;6.95;;;;;;;22.48;55.75;101510.78;4992196;28;20049;-80
2022/10/20 09:42:27;;;;;;;9.98;6.80;;;;;;;22.49;55.34;101516.00;4991677;28;20057;-80
2022/10/20 09:45:06;;;;;;;9.65;6.78;;;;;;;22.57;56.24;101521.91;4992000;28;20043;-80
2022/10/20 09:47:34;;;;;;;10.65;7.20;;;;;;;22.61;57.19;101514.47;4991936;28;20049;-79
2022/10/20 09:50:05;;;;;;;12.90;6.68;;;;;;;22.68;57.40;101509.97;4991997;28;20047;-79
2022/10/20 09:52:46;;;;;;;9.75;5.43;;;;;;;22.67;58.56;101516.72;4991805;28;20053;-80
2022/10/20 09:55:20;;;;;;;9.93;6.45;;;;;;;23.08;58.20;101517.00;4991634;28;20066;-80
2022/10/20 09:57:48;;;;;;;7.80;5.95;;;;;;;22.84;56.38;101512.16;4991902;28;20065;-79
2022/10/20 10:00:25;;;;;;;10.25;6.35;;;;;;;23.06;55.46;101494.22;4991535;28;20054;-79
2022/10/20 10:03:09;;;;;;;11.18;6.97;;;;;;;23.18;55.03;101498.19;4992125;28;20050;-80
2022/10/20 10:05:37;;;;;;;13.00;7.07;;;;;;;23.61;53.75;101504.50;4991517;28;20057;-79
2022/10/20 10:08:12;;;;;;;13.57;7.65;;;;;;;23.85;52.90;101509.28;4991250;28;20061;-79
2022/10/20 10:10:42;;;;;;;13.40;7.82;;;;;;;23.75;53.04;101509.72;4991574;28;20109;-80
2022/10/20 10:13:25;;;;;;;15.82;7.88;;;;;;;23.47;53.88;101502.81;4994823;28;20134;-78
2022/10/20 10:16:03;;;;;;;15.05;8.07;;;;;;;23.67;53.96;101499.47;4994883;28;20509;-79
2022/10/20 10:18:33;;;;;;;13.07;7.65;;;;;;;24.06;52.41;101502.75;4994819;28;20050;-80
2022/10/20 10:21:04;;;;;;;14.52;7.28;;;;;;;24.15;52.19;101503.47;4995105;28;20042;-80
2022/10/20 10:23:35;;;;;;;12.18;6.78;;;;;;;24.28;51.32;101507.06;4994776;28;20486;-79
2022/10/20 10:26:41;;;;;;;12.10;7.10;;;;;;;24.42;51.75;101515.09;4995140;28;20053;-80
2022/10/20 10:29:32;;;;;;;9.32;6.03;;;;;;;23.86;51.58;101502.50;4994334;28;20051;-80
2022/10/20 10:32:12;;;;;;;10.52;6.93;;;;;;;23.95;52.48;101496.81;4994347;28;20053;-80
2022/10/20 10:35:11;;;;;;;12.77;6.88;;;;;;;24.25;52.13;101498.56;4994145;28;20084;-81
2022/10/20 10:37:42;;;;;;;12.20;7.00;;;;;;;24.37;51.54;101501.34;4994358;28;20493;-79
2022/10/20 10:40:18;;;;;;;8.27;6.60;;;;;;;24.25;52.04;101492.97;4994498;28;20781;-79
2022/10/20 10:43:02;;;;;;;11.35;7.30;;;;;;;24.66;50.54;101499.41;4994469;28;20046;-81
2022/10/20 10:45:47;;;;;;;10.30;6.70;;;;;;;24.50;50.02;101496.53;4994004;28;20054;-81
2022/10/20 10:48:29;;;;;;;;;;;;;;;24.31;50.14;101499.13;4995249;28;20042;-79
2022/10/20 10:51:04;;;;;;;8.23;5.28;;;;;;;24.37;50.61;101495.75;4994529;28;19925;-84
2022/10/20 10:53:50;;;;;;;10.05;6.63;;;;;;;24.77;48.70;101485.69;4994307;28;20046;-85
2022/10/20 10:56:54;;;;;;;14.00;7.15;;;;;;;25.03;48.22;101475.25;4994767;28;20050;-84
2022/10/20 10:59:27;;;;;;;10.35;6.10;;;;;;;25.38;46.69;101476.53;4992089;28;20047;-83
2022/10/20 11:02:28;;;;;;;10.75;6.10;;;;;;;25.60;46.08;101464.72;4993944;28;20050;-84
2022/10/20 11:04:59;;;;;;;11.77;6.55;;;;;;;25.71;45.98;101465.00;4994272;28;20409;-83
2022/10/20 11:07:53;;;;;;;11.10;6.65;;;;;;;25.44;47.19;101458.28;4994329;28;20046;-84
2022/10/20 11:10:46;;;;;;;14.38;7.13;;;;;;;25.98;46.00;101450.38;4994007;28;20417;-84
2022/10/20 11:13:26;;;;;;;10.07;5.78;;;;;;;25.47;46.02;101460.38;4993707;28;20053;-84
2022/10/20 11:16:11;;;;;;;8.15;5.38;;;;;;;25.40;46.69;101463.00;4994150;28;20118;-81
2022/10/20 11:19:07;;;;;;;6.70;5.15;;;;;;;25.31;45.54;101455.56;4993802;28;20053;-84
2022/10/20 11:22:02;;;;;;;6.45;4.50;;;;;;;25.81;46.16;101446.00;4993703;28;20057;-84
2022/10/20 11:24:44;;;;;;;9.00;5.18;;;;;;;26.13;43.80;101440.31;4993449;28;20062;-84
2022/10/20 11:27:14;;;;;;;9.45;5.10;;;;;;;25.84;44.68;101439.66;4993308;28;20412;-84
2022/10/20 11:30:07;;;;;;;8.23;5.40;;;;;;;25.87;45.12;101442.56;4994056;28;20077;-85
2022/10/20 11:32:43;;;;;;;11.48;6.22;;;;;;;25.20;47.79;101430.09;4993307;28;20580;-85
2022/10/20 11:35:49;;;;;;;12.70;6.38;;;;;;;24.95;48.10;101433.06;4993365;28;20046;-84
2022/10/20 11:38:30;;;;;;;9.98;5.45;;;;;;;25.99;46.32;101426.78;4993627;28;20061;-85
2022/10/20 11:41:10;;;;;;;7.20;5.55;;;;;;;25.47;47.06;101421.94;4993652;28;20046;-84
2022/10/20 11:43:53;;;;;;;8.05;5.60;;;;;;;25.72;46.78;101430.16;4992040;28;20046;-84
2022/10/20 11:46:31;;;;;;;10.18;5.70;;;;;;;25.18;46.04;101420.44;4992974;28;20066;-84